createdAt,value
2022-10-11T00:03:56.699Z,100064.66
2022-10-11T00:09:01.869Z,100063.37
2022-10-11T00:14:06.923Z,100068.36
2022-10-11T00:19:12.760Z,100072.29
2022-10-11T00:24:17.338Z,100068.40
2022-10-11T00:29:21.358Z,100071.14
2022-10-11T00:34:25.259Z,100071.61
2022-10-11T00:39:29.722Z,100073.55
2022-10-11T00:44:34.287Z,100069.86
2022-10-11T00:49:57.237Z,100062.34
2022-10-11T00:55:06.529Z,100067.63
2022-10-11T01:00:14.114Z,100065.52
2022-10-11T01:05:29.605Z,100066.02
2022-10-11T01:10:34.945Z,100064.60
2022-10-11T01:15:48.647Z,100059.51
2022-10-11T01:21:02.520Z,100055.72
2022-10-11T01:26:27.569Z,100058.12
2022-10-11T01:32:00.291Z,100058.84
2022-10-11T01:37:17.063Z,100063.05
2022-10-11T01:42:21.005Z,100058.59
2022-10-11T01:47:25.571Z,100059.95
2022-10-11T01:52:33.345Z,100062.68
2022-10-11T01:57:46.282Z,100065.73
2022-10-11T02:02:56.209Z,100063.46
2022-10-11T02:08:28.140Z,100065.40
2022-10-11T02:13:50.680Z,100060.98
2022-10-11T02:18:57.371Z,100064.71
2022-10-11T02:24:06.310Z,100065.45
2022-10-11T02:29:14.271Z,100063.80
2022-10-11T02:34:25.692Z,100069.11
2022-10-11T02:40:04.554Z,100073.96
2022-10-11T02:45:19.318Z,100078.17
2022-10-11T02:50:23.732Z,100079.66
2022-10-11T02:55:30.284Z,100080.02
2022-10-11T03:00:34.401Z,100082.73
2022-10-11T03:05:41.193Z,100086.86
2022-10-11T03:10:45.789Z,100089.89
2022-10-11T03:16:02.816Z,100091.61
2022-10-11T03:21:07.522Z,100099.16
2022-10-11T03:26:11.419Z,100104.84
2022-10-11T03:31:15.324Z,100104.39
2022-10-11T03:36:19.102Z,100121.05
2022-10-11T03:41:22.589Z,100129.42
2022-10-11T03:46:26.361Z,100136.27
2022-10-11T03:51:29.899Z,100142.10
2022-10-11T03:56:33.613Z,100147.59
2022-10-11T04:01:38.877Z,100152.10
2022-10-11T04:06:42.629Z,100148.59
2022-10-11T04:11:46.277Z,100154.86
2022-10-11T04:16:49.394Z,100164.59
2022-10-11T04:21:53.613Z,100165.83
2022-10-11T04:26:57.410Z,100164.91
2022-10-11T04:32:01.566Z,100167.23
2022-10-11T04:37:06.274Z,100179.58
2022-10-11T04:42:10.900Z,100179.42
2022-10-11T04:47:15.470Z,100186.31
2022-10-11T04:52:23.339Z,100196.97
2022-10-11T04:57:30.380Z,100203.22
2022-10-11T05:02:35.708Z,100203.30
2022-10-11T05:07:39.793Z,100206.69
2022-10-11T05:12:44.256Z,100215.34
2022-10-11T05:17:49.882Z,100229.02
2022-10-11T05:22:54.355Z,100237.29
2022-10-11T05:27:59.642Z,100245.23
2022-10-11T05:33:04.259Z,100249.98
2022-10-11T05:38:09.866Z,100256.94
2022-10-11T05:43:15.155Z,100264.65
2022-10-11T05:48:20.214Z,100276.27
2022-10-11T05:53:24.694Z,100283.05
2022-10-11T05:58:31.232Z,100286.95
2022-10-11T06:03:35.971Z,100299.25
2022-10-11T06:08:40.494Z,100312.20
2022-10-11T06:13:45.081Z,100328.77
2022-10-11T06:18:48.635Z,100338.15
2022-10-11T06:23:59.890Z,100348.46
2022-10-11T06:29:05.932Z,100353.30
2022-10-11T06:34:09.982Z,100360.97
2022-10-11T06:39:13.262Z,100368.46
2022-10-11T06:44:17.124Z,100371.59
2022-10-11T06:49:23.496Z,100382.74
2022-10-11T06:54:28.689Z,100394.29
2022-10-11T06:59:32.820Z,100397.04
2022-10-11T07:04:39.659Z,100407.64
2022-10-11T07:09:44.136Z,100412.73
2022-10-11T07:14:47.681Z,100419.81
2022-10-11T07:19:51.654Z,100426.95
2022-10-11T07:24:55.315Z,100435.52
2022-10-11T07:29:59.548Z,100440.64
2022-10-11T07:35:04.060Z,100449.50
2022-10-11T07:40:15.881Z,100458.45
2022-10-11T07:45:21.861Z,100466.11
2022-10-11T07:50:25.792Z,100472.02
2022-10-11T07:55:31.586Z,100479.11
2022-10-11T08:00:35.275Z,100487.08
2022-10-11T08:05:39.576Z,100481.30
2022-10-11T08:10:45.996Z,100484.98
2022-10-11T08:15:50.300Z,100498.24
2022-10-11T08:20:54.452Z,100500.23
2022-10-11T08:25:58.922Z,100508.39
2022-10-11T08:31:03.356Z,100506.13
2022-10-11T08:36:08.884Z,100507.67
2022-10-11T08:41:27.822Z,100511.19
2022-10-11T08:46:39.586Z,100511.39
2022-10-11T08:51:52.391Z,100521.02
2022-10-11T08:56:57.293Z,100525.85
2022-10-11T09:02:43.665Z,100530.55
2022-10-11T09:08:02.058Z,100526.37
2022-10-11T09:13:09.352Z,100535.75
2022-10-11T09:18:13.549Z,100541.73
2022-10-11T09:23:41.516Z,100544.46
2022-10-11T09:29:01.722Z,100551.63
2022-10-11T09:34:15.135Z,100554.20
2022-10-11T09:39:34.300Z,100551.95
2022-10-11T09:44:48.048Z,100554.02
2022-10-11T09:50:00.844Z,100553.73
2022-10-11T09:55:05.874Z,100557.06
2022-10-11T10:00:12.972Z,100566.63
2022-10-11T10:05:22.043Z,100569.06
2022-10-11T10:10:39.798Z,100571.23
2022-10-11T10:15:47.853Z,100569.05
2022-10-11T10:20:55.424Z,100568.08
2022-10-11T10:26:23.818Z,100569.11
2022-10-11T10:32:02.003Z,100577.23
2022-10-11T10:37:12.381Z,100581.05
2022-10-11T10:42:19.072Z,100582.80
2022-10-11T10:47:41.267Z,100591.20
2022-10-11T10:52:48.473Z,100590.17
2022-10-11T10:58:18.668Z,100588.48
2022-10-11T11:04:01.508Z,100596.17
2022-10-11T11:09:25.883Z,100591.81
2022-10-11T11:14:53.828Z,100592.21
2022-10-11T11:20:23.279Z,100600.42
2022-10-11T11:25:50.074Z,100603.70
2022-10-11T11:31:12.940Z,100603.91
2022-10-11T11:36:27.432Z,100606.43
2022-10-11T11:41:40.108Z,100608.84
2022-10-11T11:46:58.794Z,100613.40
2022-10-11T11:52:06.148Z,100607.52
2022-10-11T11:57:34.715Z,100606.73
2022-10-11T12:02:57.204Z,100605.01
2022-10-11T12:08:06.992Z,100613.91
2022-10-11T12:13:35.440Z,100614.16
2022-10-11T12:18:57.916Z,100613.52
2022-10-11T12:24:21.110Z,100616.60
2022-10-11T12:29:54.801Z,100615.66
2022-10-11T12:35:33.930Z,100615.61
2022-10-11T12:40:43.588Z,100616.89
2022-10-11T12:45:48.939Z,100617.63
2022-10-11T12:51:05.826Z,100619.77
2022-10-11T12:56:16.722Z,100623.15
2022-10-11T13:01:24.161Z,100616.77
2022-10-11T13:06:35.519Z,100621.17
2022-10-11T13:11:54.160Z,100620.13
2022-10-11T13:16:59.414Z,100625.21
2022-10-11T13:22:07.704Z,100627.43
2022-10-11T13:27:22.811Z,100632.61
2022-10-11T13:32:30.748Z,100633.95
2022-10-11T13:37:45.034Z,100634.59
2022-10-11T13:42:52.253Z,100639.30
2022-10-11T13:48:00.827Z,100633.33
2022-10-11T13:53:24.177Z,100630.50
2022-10-11T13:58:37.439Z,100634.91
2022-10-11T14:03:48.842Z,100640.71
2022-10-11T14:08:56.404Z,100646.98
2022-10-11T14:14:01.044Z,100649.24
2022-10-11T14:19:12.727Z,100650.31
2022-10-11T14:24:19.356Z,100651.67
2022-10-11T14:29:33.801Z,100649.21
2022-10-11T14:34:38.670Z,100649.24
2022-10-11T14:39:44.167Z,100652.14
2022-10-11T14:44:48.164Z,100656.14
2022-10-11T14:49:52.605Z,100651.64
2022-10-11T14:54:56.810Z,100655.55
2022-10-11T15:00:00.751Z,100658.09
2022-10-11T15:05:04.234Z,100659.84
2022-10-11T15:10:24.758Z,100664.56
2022-10-11T15:15:31.169Z,100666.03
2022-10-11T15:20:41.517Z,100670.23
2022-10-11T15:25:46.399Z,100672.60
2022-10-11T15:30:50.536Z,100675.83
2022-10-11T15:35:55.465Z,100681.73
2022-10-11T15:41:03.161Z,100686.26
2022-10-11T15:46:08.347Z,100686.58
2022-10-11T15:51:13.491Z,100689.98
2022-10-11T15:56:21.255Z,100695.59
2022-10-11T16:01:25.447Z,100702.38
2022-10-11T16:06:30.782Z,100704.92
2022-10-11T16:11:34.726Z,100713.55
2022-10-11T16:16:38.527Z,100714.24
2022-10-11T16:21:41.793Z,100718.95
2022-10-11T16:26:46.033Z,100722.65
2022-10-11T16:31:50.469Z,100721.52
2022-10-11T16:36:55.725Z,100725.47
2022-10-11T16:41:59.455Z,100730.66
2022-10-11T16:47:06.810Z,100735.20
2022-10-11T16:52:15.780Z,100736.20
2022-10-11T16:57:20.386Z,100738.48
2022-10-11T17:02:32.263Z,100741.08
2022-10-11T17:07:36.548Z,100743.55
2022-10-11T17:12:40.835Z,100744.09
2022-10-11T17:17:46.081Z,100747.63
2022-10-11T17:22:51.828Z,100752.25
2022-10-11T17:27:57.396Z,100751.77
2022-10-11T17:33:03.576Z,100754.90
2022-10-11T17:38:08.455Z,100752.42
2022-10-11T17:43:12.198Z,100753.65
2022-10-11T17:48:15.935Z,100755.09
2022-10-11T17:53:19.837Z,100754.70
2022-10-11T17:58:23.542Z,100757.68
2022-10-11T18:03:30.904Z,100759.38
2022-10-11T18:08:40.464Z,100766.80
2022-10-11T18:13:48.418Z,100767.92
2022-10-11T18:18:52.573Z,100769.25
2022-10-11T18:24:00.417Z,100769.94
2022-10-11T18:29:04.181Z,100766.73
2022-10-11T18:34:11.017Z,100765.46
2022-10-11T18:39:15.536Z,100765.90
2022-10-11T18:44:20.006Z,100769.39
2022-10-11T18:49:23.891Z,100770.35
2022-10-11T18:54:28.154Z,100775.20
2022-10-11T18:59:33.634Z,100774.30
2022-10-11T19:04:43.044Z,100775.63
2022-10-11T19:09:50.833Z,100779.10
2022-10-11T19:14:56.500Z,100776.47
2022-10-11T19:20:02.206Z,100776.52
2022-10-11T19:25:08.257Z,100781.13
2022-10-11T19:30:13.466Z,100783.00
2022-10-11T19:35:20.150Z,100782.95
2022-10-11T19:40:29.154Z,100784.02
2022-10-11T19:45:36.245Z,100787.42
2022-10-11T19:50:40.074Z,100788.27
2022-10-11T19:55:46.463Z,100788.25
2022-10-11T20:01:01.383Z,100793.65
2022-10-11T20:06:08.883Z,100798.73
2022-10-11T20:11:17.132Z,100797.70
2022-10-11T20:16:27.776Z,100800.15
2022-10-11T20:21:33.536Z,100799.35
2022-10-11T20:26:38.135Z,100801.00
2022-10-11T20:31:43.983Z,100803.35
2022-10-11T20:36:49.214Z,100799.52
2022-10-11T20:41:54.595Z,100803.44
2022-10-11T20:47:03.728Z,100809.48
2022-10-11T20:52:08.868Z,100812.41
2022-10-11T20:57:12.320Z,100812.02
2022-10-11T21:02:18.918Z,100813.58
2022-10-11T21:07:22.355Z,100822.02
2022-10-11T21:12:26.067Z,100823.61
2022-10-11T21:17:29.723Z,100822.47
2022-10-11T21:22:34.189Z,100820.14
2022-10-11T21:27:39.459Z,100826.30
2022-10-11T21:32:45.472Z,100827.94
2022-10-11T21:37:49.882Z,100829.81
2022-10-11T21:42:54.584Z,100828.06
2022-10-11T21:47:59.373Z,100829.15
2022-10-11T21:53:03.300Z,100831.70
2022-10-11T21:58:07.019Z,100828.98
2022-10-11T22:03:11.410Z,100830.70
2022-10-11T22:08:22.012Z,100835.08
2022-10-11T22:13:27.564Z,100835.13
2022-10-11T22:18:33.622Z,100837.09
2022-10-11T22:23:37.916Z,100834.79
2022-10-11T22:28:41.727Z,100833.05
2022-10-11T22:38:54.964Z,100845.24
2022-10-11T22:43:58.177Z,100843.99
2022-10-11T22:49:01.814Z,100847.11
2022-10-11T22:54:06.084Z,100849.87
2022-10-11T22:59:10.106Z,100849.66
2022-10-11T23:04:13.856Z,100848.30
2022-10-11T23:09:18.013Z,100847.54
2022-10-11T23:14:22.270Z,100844.73
2022-10-11T23:19:25.964Z,100851.80
2022-10-11T23:24:30.002Z,100852.13
2022-10-11T23:29:34.065Z,100854.14
2022-10-11T23:34:37.977Z,100851.07
2022-10-11T23:39:42.252Z,100854.42
2022-10-11T23:44:46.799Z,100855.27
2022-10-11T23:49:50.437Z,100858.70
2022-10-11T23:54:54.170Z,100859.32
2022-10-11T23:59:58.289Z,100857.38
